Keota, Missouri
Current Conditions -  °F | °C
As of 6:14 AM on Thursday 18 Dec 2014 (Local Time) from KIRK Reporting Station
Light Snow Light Snow  
Wind Chill: 18°   Ceiling: 1800
Heat Index: 25°   Visibility: 1.2mi
Dew Point: 24°   Wind: 6mph
Humidity: 96%   Direction: 70°ENE
Pressure: 30.27"   Gusts: NA
Location:  39.7769°N, 92.5616°W
Report Text: KIRK 181214Z AUTO 07005KT 1 1/4SM -SN BR OVC018 M04/M04 A3027 RMK AO2 P0001 T10391044
Loading
Personal Weather Stations






























Interactive Weather Map New forecast layout! Learn more

10-Day Weather Forecast

Advertisements
Track Severe Weather on mobile